Time;durP1;ratioP1;P1;durP2;ratioP2;P2;SDS_P1;SDS_P2;PMS_P1;PMS_P2;Temp;Humidity;BMP_temperature;BMP_pressure;BME280_temperature;BME280_humidity;BME280_pressure;Samples;Min_cycle;Max_cycle;Signal;HPM_P1;HPM_P2
2023/01/26 00:01:38;;;;;;;46.30;14.85;;;;;;;;;;5070928;28;20033;-78
2023/01/26 00:04:04;;;;;;;59.75;16.23;;;;;;;;;;5065238;28;20052;-78
2023/01/26 00:06:30;;;;;;;58.30;15.52;;;;;;;;;;5064969;28;20048;-78
2023/01/26 00:08:56;;;;;;;60.22;16.02;;;;;;;;;;5071162;28;20052;-78
2023/01/26 00:11:25;;;;;;;55.83;15.45;;;;;;;;;;5059839;28;20486;-78
2023/01/26 00:13:52;;;;;;;58.47;15.68;;;;;;;;;;5068729;28;20040;-78
2023/01/26 00:16:18;;;;;;;58.85;15.70;;;;;;;;;;5071233;28;20401;-78
2023/01/26 00:18:44;;;;;;;52.67;15.57;;;;;;;;;;5070889;28;20394;-78
2023/01/26 00:21:15;;;;;;;57.80;15.55;;;;;;;;;;5054586;28;20041;-78
2023/01/26 00:23:41;;;;;;;57.25;16.85;;;;;;;;;;5072103;28;20060;-78
2023/01/26 00:26:09;;;;;;;65.43;16.08;;;;;;;;;;5072739;28;20416;-78
2023/01/26 00:28:36;;;;;;;62.35;16.00;;;;;;;;;;5070651;28;20052;-78
2023/01/26 00:31:03;;;;;;;51.85;15.25;;;;;;;;;;5056947;28;20037;-78
2023/01/26 00:33:29;;;;;;;54.08;15.18;;;;;;;;;;5070218;28;20102;-78
2023/01/26 00:35:55;;;;;;;61.50;16.10;;;;;;;;;;5068545;28;20505;-78
2023/01/26 00:38:21;;;;;;;53.17;15.55;;;;;;;;;;5070987;28;20044;-78
2023/01/26 00:40:47;;;;;;;62.33;17.05;;;;;;;;;;5058633;28;20047;-78
2023/01/26 00:43:13;;;;;;;66.25;16.33;;;;;;;;;;5068881;28;20075;-78
2023/01/26 00:45:39;;;;;;;65.50;16.10;;;;;;;;;;5071110;28;20070;-78
2023/01/26 00:48:06;;;;;;;68.72;17.08;;;;;;;;;;5070605;28;20166;-78
2023/01/26 00:50:32;;;;;;;68.72;16.70;;;;;;;;;;5054404;28;20113;-78
2023/01/26 00:52:58;;;;;;;71.20;17.35;;;;;;;;;;5070602;28;20127;-78
2023/01/26 00:55:31;;;;;;;69.95;17.05;;;;;;;;;;5071039;28;20501;-78
2023/01/26 00:58:00;;;;;;;67.88;17.38;;;;;;;;;;5070522;28;20041;-78
2023/01/26 01:00:27;;;;;;;66.57;17.10;;;;;;;;;;5070764;28;20037;-78
2023/01/26 01:02:55;;;;;;;70.00;18.08;;;;;;;;;;5053754;28;20109;-78
2023/01/26 01:05:21;;;;;;;69.43;17.77;;;;;;;;;;5070665;28;20040;-78
2023/01/26 01:07:47;;;;;;;75.22;17.95;;;;;;;;;;5070406;28;20048;-78
2023/01/26 01:10:13;;;;;;;71.68;18.25;;;;;;;;;;5071395;28;20044;-78
2023/01/26 01:12:39;;;;;;;82.63;18.73;;;;;;;;;;5032892;28;20040;-78
2023/01/26 01:15:05;;;;;;;74.63;17.80;;;;;;;;;;5068968;28;20485;-78
2023/01/26 01:17:32;;;;;;;69.43;18.38;;;;;;;;;;5068293;28;20044;-78
2023/01/26 01:19:58;;;;;;;77.55;18.95;;;;;;;;;;5066682;28;20509;-78
2023/01/26 01:22:24;;;;;;;74.30;18.80;;;;;;;;;;5060214;28;20049;-78
2023/01/26 01:24:50;;;;;;;74.40;18.20;;;;;;;;;;5073904;28;20052;-78
2023/01/26 01:27:16;;;;;;;81.75;19.42;;;;;;;;;;5074623;28;20048;-78
2023/01/26 01:29:42;;;;;;;81.32;19.42;;;;;;;;;;5065610;28;20513;-78
2023/01/26 01:32:08;;;;;;;79.85;19.38;;;;;;;;;;5069227;28;20520;-78
2023/01/26 01:34:34;;;;;;;85.80;19.98;;;;;;;;;;5070968;28;20554;-78
2023/01/26 01:37:00;;;;;;;95.28;19.02;;;;;;;;;;5057348;28;20036;-78
2023/01/26 01:39:27;;;;;;;83.22;19.98;;;;;;;;;;5075491;28;20408;-78
2023/01/26 01:41:53;;;;;;;88.10;19.02;;;;;;;;;;5057011;28;20043;-78
2023/01/26 01:44:23;;;;;;;87.18;20.15;;;;;;;;;;5061042;28;20098;-78
2023/01/26 01:46:59;;;;;;;81.70;20.27;;;;;;;;;;5056718;28;20071;-78
2023/01/26 01:49:25;;;;;;;85.47;19.58;;;;;;;;;;5073865;28;20079;-78
2023/01/26 01:52:06;;;;;;;86.43;20.30;;;;;;;;;;5056721;28;20045;-78
2023/01/26 01:54:35;;;;;;;81.97;18.25;;;;;;;;;;5073819;28;20078;-78
2023/01/26 01:57:03;;;;;;;77.50;18.40;;;;;;;;;;5073629;28;20036;-78
2023/01/26 01:59:30;;;;;;;75.70;18.38;;;;;;;;;;5074198;28;20045;-78
2023/01/26 02:01:57;;;;;;;73.50;18.63;;;;;;;;;;5069152;28;20120;-78
2023/01/26 02:04:23;;;;;;;88.10;19.60;;;;;;;;;;5053675;28;20044;-78
2023/01/26 02:06:55;;;;;;;80.70;19.10;;;;;;;;;;5069631;28;20044;-78
2023/01/26 02:12:11;;;;;;;79.60;18.77;;;;;;;;;;5059438;28;20045;-78
2023/01/26 02:14:38;;;;;;;74.20;17.08;;;;;;;;;;5073598;28;20074;-78
2023/01/26 02:17:04;;;;;;;71.43;17.92;;;;;;;;;;5071730;28;20056;-78
2023/01/26 02:19:33;;;;;;;80.82;17.45;;;;;;;;;;5062218;28;20080;-77
2023/01/26 02:22:03;;;;;;;73.88;18.33;;;;;;;;;;5063863;28;20057;-78
2023/01/26 02:24:34;;;;;;;68.47;17.77;;;;;;;;;;5071200;28;20046;-78
2023/01/26 02:27:00;;;;;;;64.60;17.83;;;;;;;;;;5072795;28;20052;-78
2023/01/26 02:29:26;;;;;;;74.80;18.95;;;;;;;;;;5059249;28;20041;-78
2023/01/26 02:31:52;;;;;;;70.32;16.83;;;;;;;;;;5065767;28;20067;-78
2023/01/26 02:34:18;;;;;;;68.47;17.73;;;;;;;;;;5070357;28;20052;-78
2023/01/26 02:36:44;;;;;;;82.57;18.48;;;;;;;;;;5072870;28;20036;-78
2023/01/26 02:39:23;;;;;;;69.68;17.92;;;;;;;;;;5072676;28;20051;-78
2023/01/26 02:44:35;;;;;;;54.67;13.77;;;;;;;;;;5058774;28;20083;-78
2023/01/26 02:47:09;;;;;;;80.47;18.35;;;;;;;;;;5061166;28;20076;-78
2023/01/26 02:49:49;;;;;;;78.15;19.70;;;;;;;;;;5071428;28;20068;-78
2023/01/26 02:52:16;;;;;;;72.57;17.30;;;;;;;;;;5072839;28;20040;-78
2023/01/26 02:57:27;;;;;;;73.15;18.38;;;;;;;;;;5072552;28;20040;-78
2023/01/26 02:59:53;;;;;;;73.13;18.20;;;;;;;;;;5072053;28;20097;-78
2023/01/26 03:02:20;;;;;;;82.85;18.35;;;;;;;;;;5061270;28;20401;-78
2023/01/26 03:04:46;;;;;;;75.35;17.98;;;;;;;;;;5058278;28;20040;-78
2023/01/26 03:07:12;;;;;;;76.55;18.77;;;;;;;;;;5070940;28;20047;-78
2023/01/26 03:09:38;;;;;;;77.50;18.52;;;;;;;;;;5072026;28;20050;-78
2023/01/26 03:12:04;;;;;;;86.82;19.10;;;;;;;;;;5071884;28;20110;-78
2023/01/26 03:14:30;;;;;;;89.50;18.58;;;;;;;;;;5058057;28;20063;-78
2023/01/26 03:16:56;;;;;;;88.88;18.27;;;;;;;;;;5071837;28;20037;-78
2023/01/26 03:27:43;;;;;;;78.93;17.40;;;;;;;;;;5071878;28;20151;-78
2023/01/26 03:30:09;;;;;;;82.53;18.88;;;;;;;;;;5071474;28;20119;-78
2023/01/26 03:32:35;;;;;;;86.45;18.63;;;;;;;;;;5071189;28;20040;-78
2023/01/26 03:35:01;;;;;;;75.93;18.42;;;;;;;;;;5071106;28;20041;-78
2023/01/26 03:37:35;;;;;;;81.65;19.40;;;;;;;;;;5071827;28;20489;-78
2023/01/26 03:56:33;;;;;;;87.35;19.30;;;;;;;;;;5045200;28;20123;-78
2023/01/26 03:59:11;;;;;;;85.47;19.58;;;;;;;;;;5070988;28;20076;-78
2023/01/26 04:01:38;;;;;;;97.40;20.13;;;;;;;;;;5055115;28;20417;-78
2023/01/26 04:09:35;;;;;;;88.00;18.42;;;;;;;;;;5071161;28;20040;-78
2023/01/26 04:12:02;;;;;;;100.35;20.30;;;;;;;;;;5070851;28;20061;-78
2023/01/26 04:22:45;;;;;;;85.72;18.90;;;;;;;;;;5072197;28;20444;-78
2023/01/26 04:25:12;;;;;;;91.07;18.80;;;;;;;;;;5070797;28;20047;-78
2023/01/26 04:27:39;;;;;;;88.20;19.92;;;;;;;;;;5071387;28;20033;-78
2023/01/26 04:30:06;;;;;;;86.47;18.75;;;;;;;;;;5053984;28;20032;-78
2023/01/26 04:32:32;;;;;;;85.95;19.63;;;;;;;;;;5071062;28;20068;-78
2023/01/26 04:34:58;;;;;;;72.75;17.73;;;;;;;;;;5070568;28;20036;-78
2023/01/26 04:37:24;;;;;;;98.28;19.50;;;;;;;;;;5070586;28;20154;-78
2023/01/26 04:39:50;;;;;;;85.57;18.63;;;;;;;;;;5054259;28;20044;-78
2023/01/26 04:42:16;;;;;;;86.03;19.95;;;;;;;;;;5070543;28;20044;-78
2023/01/26 04:44:42;;;;;;;86.07;18.20;;;;;;;;;;5070696;28;20129;-78
2023/01/26 04:47:08;;;;;;;85.88;19.02;;;;;;;;;;5070662;28;20075;-78
2023/01/26 04:49:34;;;;;;;79.03;18.77;;;;;;;;;;5070943;28;20414;-78
2023/01/26 04:52:00;;;;;;;75.95;17.48;;;;;;;;;;5071115;28;20070;-78
2023/01/26 04:54:26;;;;;;;82.30;19.33;;;;;;;;;;5070368;28;20048;-78
2023/01/26 04:56:52;;;;;;;72.13;17.85;;;;;;;;;;5070819;28;20041;-78
2023/01/26 04:59:18;;;;;;;71.57;17.90;;;;;;;;;;5070525;28;20094;-78
2023/01/26 05:01:44;;;;;;;96.60;18.65;;;;;;;;;;5061841;28;20056;-78
2023/01/26 05:04:11;;;;;;;81.43;18.98;;;;;;;;;;5060427;28;20051;-78
2023/01/26 05:06:38;;;;;;;85.00;18.27;;;;;;;;;;5070306;28;20044;-78
2023/01/26 05:09:04;;;;;;;79.57;18.38;;;;;;;;;;5070746;28;20047;-78
2023/01/26 05:11:30;;;;;;;65.43;17.30;;;;;;;;;;5070829;28;20094;-78
2023/01/26 05:13:57;;;;;;;90.38;19.92;;;;;;;;;;5070622;28;20041;-78
2023/01/26 05:16:23;;;;;;;84.68;19.13;;;;;;;;;;5069969;28;20036;-78
2023/01/26 05:18:49;;;;;;;86.57;18.98;;;;;;;;;;5070687;28;20036;-78
2023/01/26 05:21:15;;;;;;;82.97;19.98;;;;;;;;;;5070061;28;20041;-78
2023/01/26 05:23:41;;;;;;;75.28;18.73;;;;;;;;;;5053809;28;20044;-78
2023/01/26 05:26:07;;;;;;;91.45;19.38;;;;;;;;;;5053308;28;20089;-78
2023/01/26 05:28:34;;;;;;;83.72;17.90;;;;;;;;;;5070260;28;20080;-78
2023/01/26 05:31:00;;;;;;;79.93;17.83;;;;;;;;;;5071766;28;20116;-78
2023/01/26 05:33:26;;;;;;;78.75;18.08;;;;;;;;;;5069623;28;20044;-78
2023/01/26 05:35:52;;;;;;;80.18;19.95;;;;;;;;;;5036407;28;20037;-78
2023/01/26 05:38:19;;;;;;;91.72;19.73;;;;;;;;;;5062111;28;20045;-78
2023/01/26 05:40:45;;;;;;;83.72;19.30;;;;;;;;;;5070263;28;20036;-78
2023/01/26 05:43:12;;;;;;;91.50;19.60;;;;;;;;;;5069986;28;20044;-78
2023/01/26 05:45:39;;;;;;;89.57;19.45;;;;;;;;;;5053872;28;20040;-78
2023/01/26 05:48:05;;;;;;;73.68;19.55;;;;;;;;;;5071666;28;20549;-78
2023/01/26 05:50:31;;;;;;;87.50;20.38;;;;;;;;;;5069870;28;20068;-78
2023/01/26 05:52:59;;;;;;;96.82;20.42;;;;;;;;;;5053868;28;20040;-78
2023/01/26 05:55:25;;;;;;;116.60;20.83;;;;;;;;;;5071155;28;20040;-78
2023/01/26 05:57:51;;;;;;;80.13;20.38;;;;;;;;;;5073324;28;20068;-78
2023/01/26 06:00:17;;;;;;;97.60;20.30;;;;;;;;;;5073388;28;20040;-78
2023/01/26 06:02:44;;;;;;;96.57;20.50;;;;;;;;;;5059734;28;20094;-78
2023/01/26 06:05:10;;;;;;;92.47;19.48;;;;;;;;;;5057144;28;20048;-78
2023/01/26 06:07:36;;;;;;;64.30;17.40;;;;;;;;;;5073170;28;20043;-78
2023/01/26 06:10:02;;;;;;;92.13;19.80;;;;;;;;;;5056823;28;20131;-78
2023/01/26 06:12:34;;;;;;;77.32;18.67;;;;;;;;;;5073466;28;20037;-78
2023/01/26 06:15:00;;;;;;;83.68;19.30;;;;;;;;;;5073612;28;20067;-78
2023/01/26 06:17:26;;;;;;;83.63;20.13;;;;;;;;;;5073311;28;20047;-78
2023/01/26 06:19:52;;;;;;;110.20;20.50;;;;;;;;;;5073350;28;20052;-78
2023/01/26 06:22:18;;;;;;;69.43;18.52;;;;;;;;;;5072855;28;20128;-78
2023/01/26 06:24:44;;;;;;;95.60;19.60;;;;;;;;;;5059093;28;20123;-78
2023/01/26 06:27:18;;;;;;;107.40;21.25;;;;;;;;;;5074555;28;20044;-78
2023/01/26 06:29:44;;;;;;;115.53;20.80;;;;;;;;;;5073341;28;20044;-78
2023/01/26 06:32:17;;;;;;;137.88;22.52;;;;;;;;;;5070097;28;20382;-78
2023/01/26 06:34:43;;;;;;;136.55;22.17;;;;;;;;;;5065173;28;20382;-78
2023/01/26 06:37:09;;;;;;;211.48;23.65;;;;;;;;;;5073097;28;20040;-78
2023/01/26 06:39:35;;;;;;;146.63;21.42;;;;;;;;;;5074217;28;20143;-78
2023/01/26 06:42:01;;;;;;;480.10;28.73;;;;;;;;;;5072829;28;20116;-78
2023/01/26 06:44:27;;;;;;;523.22;29.63;;;;;;;;;;5074068;28;20040;-78
2023/01/26 06:46:53;;;;;;;465.67;29.67;;;;;;;;;;5089714;28;20036;-78
2023/01/26 06:49:19;;;;;;;457.80;29.65;;;;;;;;;;5041748;28;20040;-78
2023/01/26 06:51:53;;;;;;;421.65;32.33;;;;;;;;;;5072832;28;20052;-78
2023/01/26 06:54:19;;;;;;;467.85;32.10;;;;;;;;;;5072708;28;20037;-78
2023/01/26 06:56:45;;;;;;;258.75;25.02;;;;;;;;;;5072512;28;20039;-78
2023/01/26 06:59:11;;;;;;;201.48;23.88;;;;;;;;;;5072599;28;20094;-78
2023/01/26 07:01:39;;;;;;;415.48;30.63;;;;;;;;;;5072139;28;20079;-78
2023/01/26 07:04:05;;;;;;;285.60;27.65;;;;;;;;;;5073498;28;20044;-78
2023/01/26 07:06:31;;;;;;;182.80;22.90;;;;;;;;;;5058572;28;20489;-78
2023/01/26 07:08:57;;;;;;;268.17;25.38;;;;;;;;;;5072683;28;20039;-78
2023/01/26 07:11:24;;;;;;;152.40;23.00;;;;;;;;;;5057707;28;20115;-78
2023/01/26 07:13:50;;;;;;;140.98;22.60;;;;;;;;;;5073882;28;20056;-78
2023/01/26 07:16:17;;;;;;;141.35;23.75;;;;;;;;;;5073527;28;20082;-78
2023/01/26 07:18:43;;;;;;;147.57;22.85;;;;;;;;;;5072127;28;20374;-78
2023/01/26 07:21:14;;;;;;;117.38;22.45;;;;;;;;;;5072060;28;20063;-78
2023/01/26 07:23:40;;;;;;;137.10;22.50;;;;;;;;;;5071577;28;20125;-78
2023/01/26 07:26:06;;;;;;;269.27;26.05;;;;;;;;;;5072071;28;20043;-79
2023/01/26 07:28:35;;;;;;;132.43;22.17;;;;;;;;;;5071564;28;20040;-78
2023/01/26 07:31:02;;;;;;;143.85;21.83;;;;;;;;;;5072014;28;20123;-78
2023/01/26 07:33:29;;;;;;;162.52;22.63;;;;;;;;;;5070987;28;20045;-78
2023/01/26 07:35:55;;;;;;;97.40;20.65;;;;;;;;;;5065561;28;20405;-78
2023/01/26 07:38:21;;;;;;;161.02;22.27;;;;;;;;;;5047897;28;20082;-78
2023/01/26 07:40:48;;;;;;;108.63;20.73;;;;;;;;;;5071646;28;20489;-78
2023/01/26 07:43:14;;;;;;;116.75;21.38;;;;;;;;;;5071548;28;20044;-78
2023/01/26 07:45:44;;;;;;;94.03;20.25;;;;;;;;;;5071037;28;20117;-78
2023/01/26 07:48:10;;;;;;;80.30;18.58;;;;;;;;;;5071852;28;20109;-78
2023/01/26 07:50:36;;;;;;;91.93;19.15;;;;;;;;;;5071422;28;20048;-78
2023/01/26 07:53:02;;;;;;;92.88;20.08;;;;;;;;;;5071846;28;20485;-78
2023/01/26 07:55:28;;;;;;;95.35;19.35;;;;;;;;;;5071455;28;20489;-78
2023/01/26 07:57:54;;;;;;;91.35;18.52;;;;;;;;;;5071746;28;20094;-78
2023/01/26 08:00:21;;;;;;;92.28;18.23;;;;;;;;;;5055288;28;20052;-78
2023/01/26 08:02:50;;;;;;;94.95;17.45;;;;;;;;;;5054705;28;20389;-78
2023/01/26 08:05:16;;;;;;;75.97;19.48;;;;;;;;;;5054888;28;20048;-78
2023/01/26 08:07:42;;;;;;;74.00;15.70;;;;;;;;;;5071225;28;20068;-78
2023/01/26 08:10:09;;;;;;;68.00;13.93;;;;;;;;;;5071734;28;20528;-78
2023/01/26 08:12:36;;;;;;;72.45;14.57;;;;;;;;;;5070806;28;20047;-78
2023/01/26 08:15:02;;;;;;;60.70;11.57;;;;;;;;;;5071234;28;20044;-78
2023/01/26 08:17:28;;;;;;;59.40;10.98;;;;;;;;;;5071283;28;20040;-78
2023/01/26 08:19:54;;;;;;;64.78;10.30;;;;;;;;;;5071088;28;20441;-78
2023/01/26 08:22:21;;;;;;;51.50;11.05;;;;;;;;;;5071305;28;20494;-78
2023/01/26 08:24:47;;;;;;;51.45;9.02;;;;;;;;;;5054035;28;20049;-78
2023/01/26 08:27:15;;;;;;;52.22;8.45;;;;;;;;;;5071418;28;20056;-78
2023/01/26 08:29:41;;;;;;;52.40;7.97;;;;;;;;;;5070867;28;20050;-78
2023/01/26 08:32:07;;;;;;;50.30;7.53;;;;;;;;;;5070931;28;20032;-78
2023/01/26 08:34:34;;;;;;;46.90;7.43;;;;;;;;;;5070316;28;20048;-78
2023/01/26 08:37:00;;;;;;;55.40;8.65;;;;;;;;;;5054199;28;20040;-78
2023/01/26 08:39:27;;;;;;;41.33;5.93;;;;;;;;;;5070978;28;20094;-78
2023/01/26 08:41:53;;;;;;;44.10;5.90;;;;;;;;;;5070495;28;20037;-78
2023/01/26 08:44:19;;;;;;;37.10;5.55;;;;;;;;;;5070997;28;20481;-78
2023/01/26 08:46:45;;;;;;;30.40;4.57;;;;;;;;;;5071894;28;20059;-79
2023/01/26 08:49:11;;;;;;;29.70;4.35;;;;;;;;;;5070789;28;20032;-78
2023/01/26 08:51:37;;;;;;;36.88;4.72;;;;;;;;;;5070409;28;20040;-79
2023/01/26 08:54:07;;;;;;;24.08;4.13;;;;;;;;;;5070694;28;20044;-78
2023/01/26 08:56:33;;;;;;;25.10;4.03;;;;;;;;;;5070652;28;20504;-79
2023/01/26 08:58:59;;;;;;;25.80;3.65;;;;;;;;;;5070581;28;20090;-79
2023/01/26 09:01:25;;;;;;;27.70;4.43;;;;;;;;;;5070792;28;20155;-79
2023/01/26 09:03:52;;;;;;;24.58;3.80;;;;;;;;;;5070469;28;20091;-79
2023/01/26 09:06:18;;;;;;;17.08;3.63;;;;;;;;;;5072457;28;20050;-79
2023/01/26 09:08:45;;;;;;;23.20;2.90;;;;;;;;;;5070322;28;20484;-78
2023/01/26 09:11:11;;;;;;;23.33;3.40;;;;;;;;;;5054125;28;20082;-79
2023/01/26 09:13:38;;;;;;;16.20;3.00;;;;;;;;;;5070390;28;20103;-79
2023/01/26 09:16:08;;;;;;;18.63;3.35;;;;;;;;;;5053840;28;20128;-79
2023/01/26 09:18:34;;;;;;;24.13;3.35;;;;;;;;;;5070903;28;20079;-79
2023/01/26 09:21:07;;;;;;;25.50;3.60;;;;;;;;;;5070733;28;20098;-79
2023/01/26 09:23:33;;;;;;;20.30;3.03;;;;;;;;;;5053934;28;20048;-79
2023/01/26 09:25:59;;;;;;;20.75;3.33;;;;;;;;;;5070212;28;20102;-79
2023/01/26 09:28:26;;;;;;;19.00;4.03;;;;;;;;;;5070267;28;20040;-79
2023/01/26 09:30:52;;;;;;;21.20;3.60;;;;;;;;;;5070355;28;20036;-79
2023/01/26 09:33:20;;;;;;;20.45;3.40;;;;;;;;;;5074171;28;20165;-79
2023/01/26 09:35:46;;;;;;;21.73;3.58;;;;;;;;;;5073773;28;20036;-79
2023/01/26 09:38:13;;;;;;;21.27;3.95;;;;;;;;;;5074469;28;20043;-79
2023/01/26 09:40:49;;;;;;;22.33;3.90;;;;;;;;;;5057252;28;20039;-79
2023/01/26 09:43:37;;;;;;;16.00;3.00;;;;;;;;;;5074085;28;20109;-79
2023/01/26 09:46:08;;;;;;;18.50;3.53;;;;;;;;;;5074247;28;20075;-79
2023/01/26 09:48:37;;;;;;;18.48;2.90;;;;;;;;;;5057433;28;20086;-79
2023/01/26 09:51:10;;;;;;;15.80;2.60;;;;;;;;;;5073947;28;20119;-79
2023/01/26 09:53:42;;;;;;;26.88;4.68;;;;;;;;;;5073953;28;20051;-79
2023/01/26 09:56:18;;;;;;;20.63;3.60;;;;;;;;;;5075122;28;20037;-79
2023/01/26 09:58:49;;;;;;;18.65;3.60;;;;;;;;;;5056704;28;20037;-79
2023/01/26 10:01:24;;;;;;;15.43;2.90;;;;;;;;;;5073585;28;20036;-79
2023/01/26 10:03:56;;;;;;;18.42;2.97;;;;;;;;;;5073737;28;20448;-79
2023/01/26 10:06:27;;;;;;;20.92;3.38;;;;;;;;;;5057164;28;20043;-79
2023/01/26 10:08:58;;;;;;;19.27;3.40;;;;;;;;;;5073283;28;20040;-79
2023/01/26 10:11:24;;;;;;;15.02;2.42;;;;;;;;;;5073944;28;20396;-79
2023/01/26 10:13:56;;;;;;;16.17;3.25;;;;;;;;;;5073045;28;20048;-76
2023/01/26 10:16:24;;;;;;;15.77;2.95;;;;;;;;;;5073398;28;20036;-76
2023/01/26 10:18:55;;;;;;;14.80;2.72;;;;;;;;;;5073314;28;20051;-76
2023/01/26 10:21:23;;;;;;;23.40;3.17;;;;;;;;;;5073655;28;20547;-76
2023/01/26 10:23:50;;;;;;;17.75;2.70;;;;;;;;;;5072797;28;20436;-78
2023/01/26 10:26:18;;;;;;;17.40;3.58;;;;;;;;;;5072493;28;20076;-77
2023/01/26 10:28:45;;;;;;;18.15;3.30;;;;;;;;;;5060017;28;20036;-77
2023/01/26 10:31:16;;;;;;;18.02;3.00;;;;;;;;;;5073365;28;20037;-77
2023/01/26 10:33:52;;;;;;;13.13;2.72;;;;;;;;;;5073109;28;20045;-77
2023/01/26 10:36:18;;;;;;;20.17;3.78;;;;;;;;;;5073313;28;20032;-77
2023/01/26 10:38:45;;;;;;;17.52;3.03;;;;;;;;;;5072941;28;20401;-77
2023/01/26 10:41:17;;;;;;;20.20;3.00;;;;;;;;;;5073209;28;20040;-77
2023/01/26 10:43:58;;;;;;;16.65;2.60;;;;;;;;;;5072391;28;20036;-77
2023/01/26 10:46:29;;;;;;;17.23;3.33;;;;;;;;;;5072822;28;20071;-77
2023/01/26 10:48:56;;;;;;;17.52;3.25;;;;;;;;;;5072758;28;20519;-77
2023/01/26 10:51:23;;;;;;;16.98;3.33;;;;;;;;;;5073112;28;20071;-77
2023/01/26 10:53:49;;;;;;;12.55;2.67;;;;;;;;;;5055726;28;20076;-77
2023/01/26 10:56:16;;;;;;;18.48;3.40;;;;;;;;;;5072720;28;20032;-76
2023/01/26 10:58:48;;;;;;;15.98;2.85;;;;;;;;;;5072625;28;20043;-77
2023/01/26 11:01:17;;;;;;;13.82;2.22;;;;;;;;;;5072767;28;20041;-78
2023/01/26 11:03:58;;;;;;;14.35;2.53;;;;;;;;;;5072578;28;20086;-78
2023/01/26 11:06:27;;;;;;;17.90;2.60;;;;;;;;;;5072835;28;20040;-78
2023/01/26 11:08:53;;;;;;;14.68;2.63;;;;;;;;;;5072376;28;20042;-78
2023/01/26 11:11:26;;;;;;;11.25;2.30;;;;;;;;;;5072437;28;20123;-77
2023/01/26 11:14:12;;;;;;;11.68;2.20;;;;;;;;;;5055203;28;20063;-78
2023/01/26 11:16:40;;;;;;;13.15;2.53;;;;;;;;;;5071865;28;20042;-78
2023/01/26 11:19:25;;;;;;;12.57;2.25;;;;;;;;;;5072019;28;20040;-78
2023/01/26 11:22:05;;;;;;;8.88;1.90;;;;;;;;;;5044455;28;20112;-78
2023/01/26 11:24:41;;;;;;;10.88;2.47;;;;;;;;;;5071838;28;20044;-77
2023/01/26 11:27:27;;;;;;;10.20;2.10;;;;;;;;;;5071779;28;20181;-77
2023/01/26 11:30:05;;;;;;;11.73;2.20;;;;;;;;;;5055217;28;20048;-77
2023/01/26 11:32:50;;;;;;;10.00;1.90;;;;;;;;;;5046039;28;20044;-78
2023/01/26 11:35:29;;;;;;;11.30;2.10;;;;;;;;;;5071721;28;20445;-77
2023/01/26 11:37:55;;;;;;;9.95;2.25;;;;;;;;;;5055173;28;20124;-77
2023/01/26 11:40:28;;;;;;;13.38;2.20;;;;;;;;;;5071939;28;20527;-77
2023/01/26 11:43:16;;;;;;;13.88;2.72;;;;;;;;;;5071720;28;20489;-78
2023/01/26 11:45:54;;;;;;;15.93;2.05;;;;;;;;;;5055136;28;20040;-78
2023/01/26 11:48:21;;;;;;;13.40;2.08;;;;;;;;;;5071850;28;20062;-78
2023/01/26 11:51:07;;;;;;;13.82;2.20;;;;;;;;;;5071582;28;20048;-78
2023/01/26 11:53:45;;;;;;;13.18;2.00;;;;;;;;;;5064250;28;20462;-78
2023/01/26 11:56:24;;;;;;;9.80;2.20;;;;;;;;;;5071434;28;20473;-77
2023/01/26 11:58:55;;;;;;;7.55;1.30;;;;;;;;;;5071566;28;20101;-77
2023/01/26 12:01:27;;;;;;;8.30;1.63;;;;;;;;;;5057203;28;20067;-77
2023/01/26 12:03:54;;;;;;;8.23;1.90;;;;;;;;;;5071259;28;20059;-77
2023/01/26 12:06:27;;;;;;;9.32;1.83;;;;;;;;;;5071534;28;20055;-77
2023/01/26 12:09:02;;;;;;;8.68;1.50;;;;;;;;;;5071294;28;20131;-77
2023/01/26 12:11:35;;;;;;;6.80;1.50;;;;;;;;;;5071248;28;20044;-77
2023/01/26 12:14:04;;;;;;;7.35;1.63;;;;;;;;;;5071138;28;20795;-77
2023/01/26 12:16:36;;;;;;;10.27;1.40;;;;;;;;;;5071126;28;20097;-77
2023/01/26 12:19:12;;;;;;;9.13;1.63;;;;;;;;;;5070676;28;20037;-77
2023/01/26 12:21:40;;;;;;;9.98;2.03;;;;;;;;;;5070858;28;20040;-76
2023/01/26 12:24:12;;;;;;;11.20;3.30;;;;;;;;;;5070904;28;20049;-77
2023/01/26 12:26:43;;;;;;;13.30;2.72;;;;;;;;;;5067334;28;20123;-77
2023/01/26 12:29:16;;;;;;;14.68;1.98;;;;;;;;;;5061384;28;20048;-77
2023/01/26 12:31:48;;;;;;;15.05;3.28;;;;;;;;;;5071040;28;20082;-77
2023/01/26 12:34:14;;;;;;;10.93;2.33;;;;;;;;;;5043819;28;20040;-77
2023/01/26 12:36:59;;;;;;;11.80;1.80;;;;;;;;;;5071029;28;20064;-77
2023/01/26 12:39:54;;;;;;;15.65;2.00;;;;;;;;;;5046583;28;20037;-77
2023/01/26 12:42:29;;;;;;;16.13;1.80;;;;;;;;;;5035618;28;20084;-77
2023/01/26 12:45:00;;;;;;;11.93;1.50;;;;;;;;;;5054330;28;20123;-77
2023/01/26 12:47:35;;;;;;;12.77;1.60;;;;;;;;;;5068205;28;20138;-77
2023/01/26 12:50:20;;;;;;;10.50;2.05;;;;;;;;;;5060869;28;20127;-77
2023/01/26 12:53:09;;;;;;;14.15;2.30;;;;;;;;;;5054281;28;20043;-77
2023/01/26 12:55:58;;;;;;;8.75;1.60;;;;;;;;;;5056466;28;20056;-77
2023/01/26 12:58:27;;;;;;;11.93;1.77;;;;;;;;;;5062457;28;20546;-77
2023/01/26 13:00:57;;;;;;;16.90;2.28;;;;;;;;;;5050599;28;20045;-77
2023/01/26 13:03:50;;;;;;;12.48;1.60;;;;;;;;;;5059363;28;20048;-77
2023/01/26 13:06:17;;;;;;;16.10;2.33;;;;;;;;;;5070770;28;20052;-77
2023/01/26 13:08:52;;;;;;;11.43;1.60;;;;;;;;;;5074846;28;20044;-77
2023/01/26 13:11:37;;;;;;;19.75;1.88;;;;;;;;;;5070983;28;20041;-77
2023/01/26 13:14:23;;;;;;;14.48;2.20;;;;;;;;;;5068102;28;20084;-77
2023/01/26 13:16:49;;;;;;;13.05;1.67;;;;;;;;;;5074860;28;20541;-77
2023/01/26 13:19:34;;;;;;;11.18;1.65;;;;;;;;;;5074138;28;20097;-77
2023/01/26 13:22:00;;;;;;;17.35;2.13;;;;;;;;;;5050861;28;20517;-76
2023/01/26 13:24:26;;;;;;;12.23;1.88;;;;;;;;;;5074274;28;20067;-77
2023/01/26 13:27:01;;;;;;;11.77;1.63;;;;;;;;;;5075601;28;20051;-77
2023/01/26 13:29:32;;;;;;;9.73;1.30;;;;;;;;;;5074303;28;20037;-77
2023/01/26 13:31:59;;;;;;;7.03;1.08;;;;;;;;;;5070174;28;20040;-77
2023/01/26 13:34:33;;;;;;;12.15;1.40;;;;;;;;;;5074096;28;20076;-77
2023/01/26 13:37:06;;;;;;;11.10;1.63;;;;;;;;;;5073346;28;20501;-77
2023/01/26 13:39:34;;;;;;;15.25;1.85;;;;;;;;;;5062464;28;20040;-77
2023/01/26 13:42:01;;;;;;;18.42;2.30;;;;;;;;;;5060359;28;20391;-77
2023/01/26 13:44:36;;;;;;;12.93;2.00;;;;;;;;;;5075218;28;20072;-77
2023/01/26 13:47:08;;;;;;;10.52;1.88;;;;;;;;;;5074296;28;20081;-77
2023/01/26 13:49:38;;;;;;;12.57;2.13;;;;;;;;;;5049273;28;20032;-78
2023/01/26 13:52:18;;;;;;;11.02;2.05;;;;;;;;;;5075240;28;20044;-77
2023/01/26 13:54:45;;;;;;;12.05;2.40;;;;;;;;;;5032182;28;20162;-77
2023/01/26 13:57:11;;;;;;;10.35;1.73;;;;;;;;;;5060197;28;20037;-77
2023/01/26 13:59:55;;;;;;;8.10;1.58;;;;;;;;;;5059652;28;20508;-78
2023/01/26 14:02:32;;;;;;;11.15;1.90;;;;;;;;;;5073720;28;20374;-77
2023/01/26 14:04:59;;;;;;;13.35;2.65;;;;;;;;;;5049171;28;20040;-77
2023/01/26 14:07:27;;;;;;;12.82;2.28;;;;;;;;;;5073255;28;20059;-77
2023/01/26 14:09:54;;;;;;;10.23;1.60;;;;;;;;;;5059859;28;20036;-77
2023/01/26 14:12:22;;;;;;;10.75;1.85;;;;;;;;;;5073332;28;20051;-77
2023/01/26 14:14:50;;;;;;;9.63;1.85;;;;;;;;;;5074901;28;20043;-77
2023/01/26 14:17:30;;;;;;;10.30;1.45;;;;;;;;;;5056247;28;20547;-78
2023/01/26 14:19:57;;;;;;;14.27;2.08;;;;;;;;;;5073811;28;20028;-77
2023/01/26 14:22:23;;;;;;;10.68;1.67;;;;;;;;;;5056592;28;20460;-77
2023/01/26 14:24:51;;;;;;;8.48;1.40;;;;;;;;;;5073944;28;20055;-78
2023/01/26 14:27:35;;;;;;;8.75;1.55;;;;;;;;;;5073153;28;20037;-77
2023/01/26 14:30:03;;;;;;;15.90;1.70;;;;;;;;;;5059637;28;20044;-77
2023/01/26 14:32:30;;;;;;;10.63;1.55;;;;;;;;;;5056708;28;20401;-77
2023/01/26 14:34:58;;;;;;;8.52;1.63;;;;;;;;;;5072810;28;20086;-78
2023/01/26 14:37:24;;;;;;;17.90;2.10;;;;;;;;;;5053996;28;20032;-78
2023/01/26 14:40:09;;;;;;;11.68;1.42;;;;;;;;;;5063798;28;20044;-78
2023/01/26 14:42:35;;;;;;;14.80;2.00;;;;;;;;;;5067890;28;20463;-77
2023/01/26 14:45:04;;;;;;;12.35;2.10;;;;;;;;;;5054490;28;20072;-78
2023/01/26 14:47:32;;;;;;;10.10;1.50;;;;;;;;;;5054253;28;20044;-78
2023/01/26 14:50:04;;;;;;;16.27;1.80;;;;;;;;;;5073180;28;20038;-78
2023/01/26 14:52:32;;;;;;;11.55;2.13;;;;;;;;;;5069769;28;20111;-78
2023/01/26 14:55:02;;;;;;;10.65;2.00;;;;;;;;;;5062140;28;20045;-77
2023/01/26 14:57:30;;;;;;;12.07;1.48;;;;;;;;;;5072703;28;20497;-77
2023/01/26 14:59:58;;;;;;;13.85;1.80;;;;;;;;;;5066370;28;20086;-77
2023/01/26 15:02:27;;;;;;;11.27;2.35;;;;;;;;;;5066619;28;20040;-78
2023/01/26 15:04:53;;;;;;;10.70;1.60;;;;;;;;;;5056137;28;20051;-78
2023/01/26 15:07:30;;;;;;;10.75;2.38;;;;;;;;;;5072255;28;20181;-78
2023/01/26 15:09:56;;;;;;;12.88;2.17;;;;;;;;;;5073016;28;20075;-78
2023/01/26 15:12:22;;;;;;;13.32;2.30;;;;;;;;;;5072101;28;20044;-78
2023/01/26 15:14:50;;;;;;;11.07;2.00;;;;;;;;;;5072277;28;20040;-78
2023/01/26 15:17:35;;;;;;;14.63;2.13;;;;;;;;;;5073700;28;20048;-77
2023/01/26 15:20:01;;;;;;;13.30;2.15;;;;;;;;;;5067075;28;20041;-77
2023/01/26 15:22:27;;;;;;;19.70;2.50;;;;;;;;;;5063012;28;20086;-78